Time;durP1;ratioP1;P1;durP2;ratioP2;P2;SDS_P1;SDS_P2;PMS_P1;PMS_P2;Temp;Humidity;BMP_temperature;BMP_pressure;BME280_temperature;BME280_humidity;BME280_pressure;Samples;Min_cycle;Max_cycle;Signal;HPM_P1;HPM_P2
2022/08/30 00:01:52;;;;;;;15.60;6.25;;;;;;;13.53;88.29;99214.34;2174436;81;20978;-83
2022/08/30 00:04:53;;;;;;;15.50;6.00;;;;;;;13.51;88.39;99209.96;2174161;81;20941;-82
2022/08/30 00:07:53;;;;;;;10.00;6.70;;;;;;;13.49;88.58;99206.45;2173834;81;20973;-82
2022/08/30 00:10:53;;;;;;;10.58;5.72;;;;;;;13.51;88.65;99207.34;2173550;81;21381;-81
2022/08/30 00:13:53;;;;;;;14.38;5.83;;;;;;;13.54;88.66;99203.42;2173738;81;20929;-83
2022/08/30 00:16:54;;;;;;;13.10;6.33;;;;;;;13.53;88.63;99204.30;2174080;81;20905;-82
2022/08/30 00:19:54;;;;;;;7.60;5.40;;;;;;;13.53;88.70;99205.60;2173593;81;21441;-82
2022/08/30 00:22:55;;;;;;;8.25;5.60;;;;;;;13.53;88.71;99208.23;2173779;81;21001;-82
2022/08/30 00:25:55;;;;;;;12.55;6.05;;;;;;;13.52;88.87;99213.03;2173714;81;20933;-83
2022/08/30 00:28:55;;;;;;;8.08;5.53;;;;;;;13.54;89.14;99206.05;2173778;81;20932;-82
2022/08/30 00:31:56;;;;;;;11.22;5.58;;;;;;;13.57;89.07;99208.69;2172370;81;20972;-82
2022/08/30 00:34:56;;;;;;;12.88;5.35;;;;;;;13.61;89.03;99210.02;2172017;81;21221;-82
2022/08/30 00:37:57;;;;;;;10.40;6.05;;;;;;;13.64;88.82;99206.54;2171877;81;21036;-82
2022/08/30 00:40:58;;;;;;;10.82;6.12;;;;;;;13.61;88.85;99206.52;2172121;81;20929;-82
2022/08/30 00:43:58;;;;;;;9.68;6.35;;;;;;;13.63;89.31;99208.28;2172422;81;20964;-82
2022/08/30 00:46:58;;;;;;;11.63;6.20;;;;;;;13.69;89.50;99212.69;2173180;81;20999;-82
2022/08/30 00:49:59;;;;;;;11.80;7.20;;;;;;;13.75;89.79;99209.22;2173713;82;21004;-81
2022/08/30 00:52:59;;;;;;;13.98;6.72;;;;;;;13.82;90.20;99211.00;2173663;81;20965;-82
2022/08/30 00:55:59;;;;;;;17.42;8.15;;;;;;;13.86;90.20;99210.14;2173624;81;20980;-82
2022/08/30 00:58:59;;;;;;;12.65;8.03;;;;;;;13.87;90.46;99210.59;2173394;81;21333;-81
2022/08/30 01:02:00;;;;;;;14.68;8.40;;;;;;;13.92;90.55;99213.70;2173619;81;20961;-81
2022/08/30 01:05:00;;;;;;;15.93;8.60;;;;;;;13.99;90.65;99215.48;2173770;81;20941;-83
2022/08/30 01:08:01;;;;;;;13.70;8.10;;;;;;;14.05;90.34;99212.44;2173985;81;20964;-82
2022/08/30 01:11:02;;;;;;;13.28;7.08;;;;;;;14.03;90.04;99209.37;2174271;81;20941;-82
2022/08/30 01:14:02;;;;;;;16.40;7.83;;;;;;;14.02;89.35;99212.88;2174319;81;20957;-82
2022/08/30 01:17:02;;;;;;;11.90;7.42;;;;;;;13.97;89.15;99212.41;2174813;82;20925;-82
2022/08/30 01:20:02;;;;;;;13.30;7.45;;;;;;;13.90;89.13;99216.76;2174554;81;20976;-82
2022/08/30 01:23:03;;;;;;;14.65;8.30;;;;;;;13.81;88.87;99210.13;2174441;81;20936;-81
2022/08/30 01:26:04;;;;;;;16.52;9.53;;;;;;;13.69;88.59;99212.69;2173964;81;20949;-81
2022/08/30 01:29:03;;;;;;;22.58;11.18;;;;;;;13.59;88.70;99213.08;2173938;81;20933;-80
2022/08/30 01:32:04;;;;;;;18.42;10.45;;;;;;;13.50;89.34;99215.64;2174138;81;20976;-82
2022/08/30 01:35:04;;;;;;;19.87;9.83;;;;;;;13.45;89.51;99212.11;2174090;81;21321;-81
2022/08/30 01:38:05;;;;;;;20.52;9.70;;;;;;;13.37;89.16;99212.50;2173898;81;20952;-81
2022/08/30 01:41:05;;;;;;;17.42;10.90;;;;;;;13.26;89.02;99216.80;2173739;81;20984;-82
2022/08/30 01:44:06;;;;;;;15.88;8.85;;;;;;;13.16;89.36;99213.63;2174286;81;20929;-82
2022/08/30 01:47:06;;;;;;;15.70;8.55;;;;;;;13.11;89.77;99221.89;2174587;81;20926;-81
2022/08/30 01:50:06;;;;;;;14.03;7.83;;;;;;;13.02;89.65;99216.15;2174568;81;20945;-82
2022/08/30 01:53:07;;;;;;;11.73;7.17;;;;;;;12.96;89.73;99218.25;2175111;81;20984;-81
2022/08/30 01:56:07;;;;;;;13.50;7.80;;;;;;;12.92;90.01;99215.59;2190854;81;21267;-81
2022/08/30 01:59:08;;;;;;;11.60;6.95;;;;;;;12.89;89.96;99215.57;2190691;81;21355;-82
2022/08/30 02:02:08;;;;;;;13.75;7.83;;;;;;;12.83;89.87;99209.84;2190607;81;20956;-82
2022/08/30 02:05:08;;;;;;;14.63;7.50;;;;;;;12.78;90.28;99215.91;2190594;81;21021;-82
2022/08/30 02:08:09;;;;;;;14.45;7.60;;;;;;;12.73;90.36;99209.32;2190876;81;21007;-82
2022/08/30 02:11:09;;;;;;;20.23;7.78;;;;;;;12.70;90.46;99211.91;2190814;81;20933;-81
2022/08/30 02:14:10;;;;;;;14.43;7.70;;;;;;;12.66;90.43;99212.31;2190471;81;20968;-81
2022/08/30 02:17:12;;;;;;;13.58;7.83;;;;;;;12.66;90.29;99218.86;2190539;81;20936;-77
2022/08/30 02:20:13;;;;;;;18.12;7.83;;;;;;;12.63;90.57;99208.80;2191257;81;20932;-84
2022/08/30 02:23:13;;;;;;;15.38;8.25;;;;;;;12.61;90.78;99203.97;2191419;81;20940;-83
2022/08/30 02:26:13;;;;;;;37.93;9.23;;;;;;;12.58;90.83;99203.52;2190899;81;20952;-83
2022/08/30 02:29:14;;;;;;;22.15;8.88;;;;;;;12.67;91.73;99204.03;2191752;81;20893;-81
2022/08/30 02:32:14;;;;;;;14.85;8.68;;;;;;;12.74;91.98;99209.77;2192102;81;21316;-81
2022/08/30 02:35:15;;;;;;;14.07;8.90;;;;;;;12.73;91.66;99207.58;2191688;81;20971;-82
2022/08/30 02:38:15;;;;;;;15.30;8.48;;;;;;;12.70;91.34;99204.93;2191186;81;20924;-81
2022/08/30 02:41:15;;;;;;;18.10;8.08;;;;;;;12.68;91.29;99204.47;2190740;81;21340;-82
2022/08/30 02:44:19;;;;;;;21.82;8.50;;;;;;;12.63;91.14;99202.25;2190761;81;20901;-79
2022/08/30 02:47:19;;;;;;;15.88;7.90;;;;;;;12.54;91.08;99201.73;2190789;81;20960;-82
2022/08/30 02:50:22;;;;;;;9.55;7.12;;;;;;;12.50;91.08;99195.14;2190551;81;21343;-82
2022/08/30 02:53:22;;;;;;;12.07;8.25;;;;;;;12.44;91.23;99201.19;2189393;81;20940;-81
2022/08/30 02:56:23;;;;;;;11.68;7.55;;;;;;;12.40;91.54;99192.86;2174276;81;20953;-82
2022/08/30 02:59:23;;;;;;;12.82;7.55;;;;;;;12.37;91.48;99193.70;2174720;82;20941;-82
2022/08/30 03:02:23;;;;;;;13.72;7.90;;;;;;;12.30;91.55;99184.47;2174009;81;21360;-82
2022/08/30 03:05:24;;;;;;;17.32;7.70;;;;;;;12.28;91.74;99187.50;2173892;81;21035;-81
2022/08/30 03:08:24;;;;;;;13.28;8.38;;;;;;;12.26;91.78;99192.72;2174151;81;20957;-82
2022/08/30 03:11:25;;;;;;;42.50;10.80;;;;;;;12.25;91.92;99191.39;2174189;81;20970;-82
2022/08/30 03:14:25;;;;;;;19.45;8.83;;;;;;;12.23;92.26;99185.27;2174241;81;20961;-81
2022/08/30 03:17:25;;;;;;;12.23;8.60;;;;;;;12.20;92.11;99189.16;2173800;81;20933;-81
2022/08/30 03:20:26;;;;;;;15.05;8.60;;;;;;;12.16;91.93;99200.45;2174628;81;20913;-82
2022/08/30 03:23:26;;;;;;;14.45;8.20;;;;;;;12.18;92.59;99207.46;2174248;81;21362;-81
2022/08/30 03:26:27;;;;;;;16.62;7.97;;;;;;;12.17;92.34;99204.83;2174621;81;20945;-80
2022/08/30 03:29:28;;;;;;;19.45;8.85;;;;;;;12.12;92.22;99201.69;2174775;81;20968;-81
2022/08/30 03:32:27;;;;;;;14.40;8.63;;;;;;;12.10;92.48;99203.41;2174659;81;21391;-81
2022/08/30 03:35:28;;;;;;;16.10;8.53;;;;;;;12.09;92.55;99204.28;2174699;81;21032;-81
2022/08/30 03:38:29;;;;;;;12.60;9.10;;;;;;;12.13;92.98;99206.06;2171893;82;21012;-81
2022/08/30 03:41:29;;;;;;;185.57;18.62;;;;;;;12.15;93.32;99204.81;2173472;82;20964;-80
2022/08/30 03:44:29;;;;;;;28.42;11.53;;;;;;;12.23;93.55;99198.35;2173967;81;21000;-81
2022/08/30 03:47:29;;;;;;;19.87;9.18;;;;;;;12.28;93.49;99200.59;2172898;81;21007;-80
2022/08/30 03:50:31;;;;;;;13.72;9.75;;;;;;;12.31;93.39;99198.00;2172330;81;21467;-81
2022/08/30 03:53:31;;;;;;;568.27;52.67;;;;;;;12.36;93.58;99204.16;2171587;81;20999;-79
2022/08/30 03:56:32;;;;;;;33.53;11.35;;;;;;;12.41;93.72;99193.30;2171846;81;21081;-80
2022/08/30 03:59:32;;;;;;;19.20;9.53;;;;;;;12.49;93.97;99199.50;2172271;81;21040;-81
2022/08/30 04:02:33;;;;;;;24.10;11.40;;;;;;;12.49;93.15;99207.34;2173197;81;21005;-81
2022/08/30 04:05:33;;;;;;;79.82;14.60;;;;;;;12.52;93.23;99207.81;2171988;82;20996;-80
2022/08/30 04:08:33;;;;;;;16.73;10.60;;;;;;;12.51;93.25;99215.22;2172127;81;21340;-82
2022/08/30 04:11:34;;;;;;;44.48;12.40;;;;;;;12.52;93.15;99223.09;2172916;81;20957;-82
2022/08/30 04:14:34;;;;;;;24.35;10.18;;;;;;;12.53;93.20;99222.23;2173866;81;20996;-82
2022/08/30 04:17:35;;;;;;;20.88;10.78;;;;;;;12.57;93.18;99226.63;2173994;81;20984;-82
2022/08/30 04:20:35;;;;;;;17.05;9.70;;;;;;;12.62;93.43;99233.22;2174388;81;21312;-81
2022/08/30 04:23:35;;;;;;;27.32;11.55;;;;;;;12.75;94.01;99235.97;2173910;81;20964;-81
2022/08/30 04:26:36;;;;;;;30.60;10.63;;;;;;;12.94;94.87;99240.06;2174096;81;20957;-82
2022/08/30 04:29:36;;;;;;;18.82;10.72;;;;;;;13.14;94.84;99239.83;2173995;81;21399;-81
2022/08/30 04:32:37;;;;;;;19.50;11.18;;;;;;;13.32;94.83;99242.62;2173723;82;21008;-82
2022/08/30 04:35:37;;;;;;;21.77;11.08;;;;;;;13.49;94.58;99237.92;2173685;81;20977;-81
2022/08/30 04:38:38;;;;;;;20.57;10.68;;;;;;;13.65;94.40;99235.41;2174354;81;20957;-81
2022/08/30 04:41:39;;;;;;;17.23;10.38;;;;;;;13.82;94.17;99232.87;2174411;81;20929;-81
2022/08/30 04:44:38;;;;;;;21.93;11.10;;;;;;;13.99;93.87;99240.41;2174602;81;20932;-82
2022/08/30 04:47:39;;;;;;;16.23;10.45;;;;;;;14.13;93.43;99246.16;2174581;81;20968;-82
2022/08/30 04:50:39;;;;;;;19.00;11.30;;;;;;;14.18;93.25;99249.68;2174079;81;21268;-82
2022/08/30 04:53:39;;;;;;;19.35;10.68;;;;;;;14.20;93.01;99259.75;2174019;81;21003;-82
2022/08/30 04:56:40;;;;;;;19.48;12.15;;;;;;;14.24;92.93;99258.89;2172874;81;21103;-81
2022/08/30 04:59:40;;;;;;;20.52;14.10;;;;;;;14.32;93.15;99263.30;2172389;82;21008;-83
2022/08/30 05:02:41;;;;;;;27.52;15.85;;;;;;;14.46;93.15;99266.00;2171699;81;20937;-79
2022/08/30 05:05:41;;;;;;;14.63;11.55;;;;;;;14.59;93.04;99265.16;2170497;81;21064;-80
2022/08/30 05:08:41;;;;;;;16.52;10.80;;;;;;;14.74;92.58;99272.63;2170455;81;20996;-82
2022/08/30 05:11:42;;;;;;;20.72;11.83;;;;;;;14.89;92.03;99272.69;2170683;81;21007;-83
2022/08/30 05:14:42;;;;;;;21.27;11.03;;;;;;;15.02;91.55;99276.21;2170117;81;21368;-83
2022/08/30 05:17:43;;;;;;;24.60;13.30;;;;;;;15.14;91.21;99274.47;2170007;82;21007;-82
2022/08/30 05:20:43;;;;;;;15.15;10.38;;;;;;;15.25;90.60;99282.36;2169793;81;21031;-82
2022/08/30 05:23:43;;;;;;;17.75;10.88;;;;;;;15.32;90.08;99281.91;2170148;81;20941;-82
2022/08/30 05:26:44;;;;;;;17.90;11.03;;;;;;;15.36;89.83;99284.98;2169479;81;21531;-82
2022/08/30 05:29:44;;;;;;;18.23;13.30;;;;;;;15.35;89.77;99285.86;2169891;81;20965;-82
2022/08/30 05:32:45;;;;;;;18.42;10.78;;;;;;;15.37;89.48;99283.67;2169976;81;21055;-83
2022/08/30 05:35:45;;;;;;;14.80;10.65;;;;;;;15.42;89.41;99287.61;2169891;82;22148;-81
2022/08/30 05:38:46;;;;;;;18.42;11.05;;;;;;;15.51;89.46;99284.97;2170114;81;21016;-84
2022/08/30 05:41:46;;;;;;;17.27;10.63;;;;;;;15.62;89.18;99280.64;2169617;81;20956;-80
2022/08/30 05:44:46;;;;;;;15.28;9.23;;;;;;;15.72;88.60;99287.64;2170302;81;21211;-83
2022/08/30 05:47:47;;;;;;;19.15;11.40;;;;;;;15.84;88.03;99286.30;2171369;81;21380;-82
2022/08/30 05:50:47;;;;;;;20.80;12.03;;;;;;;15.92;87.62;99288.47;2171532;81;20988;-83
2022/08/30 05:53:48;;;;;;;18.77;9.83;;;;;;;16.01;87.51;99288.88;2170614;81;21004;-82
2022/08/30 05:56:48;;;;;;;19.85;14.45;;;;;;;16.13;87.16;99291.48;2186084;81;21485;-82
2022/08/30 05:59:48;;;;;;;20.17;13.62;;;;;;;16.30;86.76;99290.09;2186691;81;20940;-83
2022/08/30 06:02:49;;;;;;;18.07;11.75;;;;;;;16.52;86.09;99290.91;2186229;81;20983;-83
2022/08/30 06:05:53;;;;;;;14.95;9.93;;;;;;;16.85;85.60;99292.07;2186978;81;20996;-80
2022/08/30 06:08:52;;;;;;;14.50;9.50;;;;;;;17.22;84.13;99291.80;2170974;81;21348;-81
2022/08/30 06:11:56;;;;;;;22.47;11.17;;;;;;;17.47;82.98;99283.28;2187055;81;20999;-83
2022/08/30 06:14:55;;;;;;;18.65;10.80;;;;;;;17.55;83.17;99289.80;2186763;81;21440;-81
2022/08/30 06:17:56;;;;;;;14.38;10.13;;;;;;;17.59;82.47;99293.72;2187062;81;21000;-82
2022/08/30 06:20:57;;;;;;;19.75;12.55;;;;;;;17.63;82.34;99286.20;2186905;81;20999;-82
2022/08/30 06:23:56;;;;;;;16.23;12.20;;;;;;;17.68;82.18;99287.52;2186638;81;21032;-83
2022/08/30 06:26:57;;;;;;;18.25;12.33;;;;;;;17.75;82.47;99290.52;2185842;81;21015;-83
2022/08/30 06:29:57;;;;;;;21.20;13.22;;;;;;;17.90;82.09;99296.09;2186557;81;21027;-83
2022/08/30 06:32:58;;;;;;;15.60;12.35;;;;;;;17.86;81.54;99299.66;2186186;81;20996;-82
2022/08/30 06:35:58;;;;;;;16.23;13.43;;;;;;;17.78;82.30;99295.33;2187131;81;20996;-81
2022/08/30 06:38:59;;;;;;;17.07;12.40;;;;;;;17.78;82.61;99290.05;2186525;81;21047;-82
2022/08/30 06:41:59;;;;;;;16.65;11.90;;;;;;;17.79;82.29;99285.64;2186841;81;21034;-83
2022/08/30 06:44:59;;;;;;;23.15;13.08;;;;;;;17.64;82.25;99293.67;2186540;81;21011;-83
2022/08/30 06:48:00;;;;;;;15.95;12.43;;;;;;;17.54;82.72;99294.66;2186569;81;21440;-83
2022/08/30 06:51:00;;;;;;;14.68;10.53;;;;;;;17.53;83.26;99295.09;2186481;81;21031;-78
2022/08/30 06:54:01;;;;;;;17.50;10.65;;;;;;;17.67;83.50;99291.91;2186246;81;20971;-82
2022/08/30 06:57:01;;;;;;;14.30;10.20;;;;;;;17.85;83.11;99301.86;2185779;81;21051;-84
2022/08/30 07:00:01;;;;;;;129.47;18.75;;;;;;;17.96;83.37;99298.66;2186909;81;21044;-81
2022/08/30 07:03:02;;;;;;;14.40;10.18;;;;;;;18.05;82.96;99305.17;2187037;81;20984;-84
2022/08/30 07:06:02;;;;;;;14.23;10.48;;;;;;;18.20;82.59;99299.71;2186995;81;20980;-83
2022/08/30 07:09:03;;;;;;;12.85;10.28;;;;;;;18.31;82.16;99310.19;2187235;81;21003;-83
2022/08/30 07:12:03;;;;;;;13.38;10.25;;;;;;;18.39;81.78;99304.36;2186999;81;20971;-84
2022/08/30 07:15:03;;;;;;;21.52;13.65;;;;;;;18.47;81.65;99311.75;2186485;81;21345;-84
2022/08/30 07:21:23;;;;;;;17.85;12.60;;;;;;;18.33;81.22;99312.37;2186948;81;20940;-84
2022/08/30 07:24:23;;;;;;;19.82;12.47;;;;;;;18.39;81.98;99318.90;2186643;81;21003;-85
2022/08/30 07:27:23;;;;;;;17.92;12.65;;;;;;;18.45;81.70;99319.70;2186720;81;20973;-83
2022/08/30 07:30:24;;;;;;;16.17;11.93;;;;;;;18.59;82.02;99329.22;2187345;81;21054;-85
2022/08/30 07:33:24;;;;;;;19.02;12.47;;;;;;;18.65;81.20;99327.41;2187644;81;21067;-85
2022/08/30 07:36:25;;;;;;;14.25;12.35;;;;;;;18.66;80.57;99324.31;2187250;81;21010;-84
2022/08/30 07:39:25;;;;;;;12.33;11.03;;;;;;;18.67;80.52;99329.59;2187056;81;21055;-83
2022/08/30 07:42:26;;;;;;;13.18;11.22;;;;;;;18.82;80.26;99330.28;2187488;81;21373;-83
2022/08/30 07:45:26;;;;;;;17.02;12.15;;;;;;;18.93;80.04;99321.30;2187677;81;21027;-84
2022/08/30 07:48:26;;;;;;;14.80;10.70;;;;;;;19.29;79.31;99324.31;2187952;81;21351;-82
2022/08/30 07:51:27;;;;;;;15.00;11.30;;;;;;;19.47;78.98;99322.70;2187595;81;21031;-84
2022/08/30 07:54:27;;;;;;;16.07;11.95;;;;;;;19.63;78.03;99316.73;2187512;81;21463;-83
2022/08/30 07:57:30;;;;;;;11.93;10.72;;;;;;;19.59;77.08;99322.97;2186842;81;21015;-83
2022/08/30 08:00:28;;;;;;;14.20;10.55;;;;;;;19.52;77.83;99322.20;2187055;81;20971;-82
2022/08/30 08:03:28;;;;;;;12.25;11.00;;;;;;;19.68;77.62;99316.20;2187327;81;21007;-83
2022/08/30 08:06:29;;;;;;;14.55;10.70;;;;;;;20.02;76.96;99324.44;2187272;81;20956;-82
2022/08/30 08:09:29;;;;;;;12.45;10.28;;;;;;;20.45;75.28;99327.61;2186696;81;20929;-84
2022/08/30 08:12:30;;;;;;;15.72;12.60;;;;;;;20.75;73.83;99326.97;2186884;81;21239;-82
2022/08/30 08:15:30;;;;;;;15.90;11.33;;;;;;;20.84;73.94;99324.15;2186299;81;21355;-83
2022/08/30 08:18:30;;;;;;;15.10;13.08;;;;;;;20.95;72.67;99319.92;2186419;81;20974;-83
2022/08/30 08:21:31;;;;;;;16.00;14.40;;;;;;;20.82;72.06;99321.11;2186277;81;21039;-81
2022/08/30 08:24:31;;;;;;;15.80;14.20;;;;;;;20.84;72.69;99326.80;2186035;81;21919;-82
2022/08/30 08:27:31;;;;;;;13.98;12.58;;;;;;;20.83;71.85;99329.48;2187288;81;21023;-85
2022/08/30 08:30:32;;;;;;;16.07;12.18;;;;;;;20.72;72.22;99332.80;2187578;81;21043;-83
2022/08/30 08:33:32;;;;;;;16.37;12.55;;;;;;;20.80;72.09;99326.41;2187999;81;21372;-82
2022/08/30 08:36:33;;;;;;;14.83;12.30;;;;;;;20.95;72.42;99327.44;2186440;81;21020;-82
2022/08/30 08:39:33;;;;;;;12.73;10.78;;;;;;;21.18;71.71;99327.36;2186540;81;21223;-81
2022/08/30 08:42:33;;;;;;;14.23;11.83;;;;;;;21.58;71.37;99325.97;2186415;81;21815;-81
2022/08/30 08:45:34;;;;;;;13.10;11.45;;;;;;;22.09;69.87;99330.45;2187400;81;20992;-83
2022/08/30 08:48:34;;;;;;;12.70;11.38;;;;;;;22.60;66.55;99331.27;2187999;81;20999;-82
2022/08/30 08:54:55;;;;;;;11.18;9.95;;;;;;;22.85;65.99;99330.11;2186783;81;21003;-81
2022/08/30 08:57:54;;;;;;;13.40;9.95;;;;;;;22.91;65.77;99324.59;2187780;81;20971;-83
2022/08/30 09:00:55;;;;;;;9.60;8.65;;;;;;;22.80;64.66;99320.93;2187325;81;21027;-83
2022/08/30 09:03:55;;;;;;;5.95;5.35;;;;;;;22.53;64.86;99325.67;2186857;81;20956;-81
2022/08/30 09:06:55;;;;;;;6.58;4.90;;;;;;;22.23;64.55;99326.08;2186380;81;21019;-81
2022/08/30 09:09:56;;;;;;;5.80;4.85;;;;;;;22.19;65.29;99331.95;2186573;81;21063;-82
2022/08/30 09:12:56;;;;;;;5.37;4.85;;;;;;;22.24;64.41;99331.36;2186783;81;21726;-84
2022/08/30 09:15:56;;;;;;;7.33;5.05;;;;;;;22.15;64.87;99334.27;2187593;81;20956;-82
2022/08/30 09:18:57;;;;;;;5.20;4.70;;;;;;;22.69;65.18;99323.02;2187688;81;20971;-83
2022/08/30 09:21:57;;;;;;;4.83;4.40;;;;;;;23.12;61.36;99328.39;2187716;81;21008;-85
2022/08/30 09:24:58;;;;;;;4.78;4.37;;;;;;;23.13;62.79;99326.14;2187583;81;20928;-82
2022/08/30 09:27:58;;;;;;;6.55;4.40;;;;;;;23.05;60.00;99330.83;2187338;81;20991;-83
2022/08/30 09:30:58;;;;;;;4.72;4.22;;;;;;;22.67;60.93;99328.84;2186645;81;20913;-82
2022/08/30 09:34:00;;;;;;;7.37;4.35;;;;;;;22.40;62.15;99328.27;2187264;81;21498;-84
2022/08/30 09:36:59;;;;;;;3.72;3.47;;;;;;;22.21;62.40;99328.78;2187410;81;21004;-83
2022/08/30 09:40:00;;;;;;;5.08;4.30;;;;;;;22.29;62.42;99327.70;2187157;81;20989;-81
2022/08/30 09:43:00;;;;;;;5.67;4.62;;;;;;;22.39;62.59;99330.06;2187656;81;21915;-82
2022/08/30 09:46:01;;;;;;;7.42;4.72;;;;;;;22.67;61.72;99327.51;2187323;81;21407;-81
2022/08/30 09:49:01;;;;;;;5.58;4.60;;;;;;;22.83;61.26;99332.81;2186866;81;20964;-80
2022/08/30 09:52:01;;;;;;;4.30;3.90;;;;;;;22.95;60.64;99330.70;2186572;81;21176;-80
2022/08/30 09:55:02;;;;;;;5.10;4.58;;;;;;;23.02;61.11;99330.92;2186375;81;20956;-83
2022/08/30 09:58:02;;;;;;;6.12;4.60;;;;;;;22.84;61.09;99331.03;2169920;81;21039;-83
2022/08/30 10:01:03;;;;;;;5.15;4.72;;;;;;;22.84;61.02;99330.56;2170264;81;21070;-84
2022/08/30 10:04:03;;;;;;;7.22;4.80;;;;;;;22.78;60.59;99332.05;2170148;81;20905;-84
2022/08/30 10:07:03;;;;;;;5.60;4.92;;;;;;;22.63;60.48;99330.30;2169839;81;21955;-84
2022/08/30 10:10:04;;;;;;;6.00;4.10;;;;;;;22.49;61.57;99325.34;2169876;81;20976;-83
2022/08/30 10:13:04;;;;;;;4.22;3.70;;;;;;;22.59;61.88;99318.00;2170363;82;20984;-82
2022/08/30 10:16:04;;;;;;;5.87;3.67;;;;;;;22.70;62.14;99319.43;2169530;81;21048;-83
2022/08/30 10:19:05;;;;;;;4.37;3.83;;;;;;;22.80;60.86;99323.59;2170358;81;20933;-84
2022/08/30 10:22:05;;;;;;;7.20;4.00;;;;;;;22.81;60.44;99328.00;2171044;81;20976;-85
2022/08/30 10:25:06;;;;;;;4.55;4.10;;;;;;;22.95;60.20;99321.38;2171014;82;21008;-84
2022/08/30 10:28:06;;;;;;;4.65;3.72;;;;;;;23.04;61.33;99319.77;2170167;81;21027;-84
2022/08/30 10:31:07;;;;;;;4.22;3.42;;;;;;;23.15;60.78;99320.30;2171676;81;20979;-85
2022/08/30 10:34:07;;;;;;;6.50;4.22;;;;;;;23.36;60.47;99314.28;2171221;81;21027;-83
2022/08/30 10:37:07;;;;;;;6.33;4.70;;;;;;;23.64;59.26;99312.11;2170694;81;21024;-86
2022/08/30 10:43:27;;;;;;;4.08;3.77;;;;;;;23.71;58.66;99309.64;2171606;82;20940;-82
2022/08/30 10:46:27;;;;;;;4.33;3.67;;;;;;;23.72;58.24;99304.27;2170996;81;21035;-84
2022/08/30 10:49:27;;;;;;;4.22;3.80;;;;;;;24.11;58.24;99300.66;2170757;81;21008;-83
2022/08/30 10:52:28;;;;;;;4.05;3.58;;;;;;;23.95;56.40;99295.92;2169771;81;21119;-82
2022/08/30 10:55:28;;;;;;;8.18;4.15;;;;;;;23.48;56.83;99299.27;2170258;81;21320;-83
2022/08/30 10:58:30;;;;;;;8.95;4.53;;;;;;;23.16;58.24;99300.28;2170446;81;20937;-83
2022/08/30 11:01:29;;;;;;;7.92;5.50;;;;;;;22.81;58.33;99305.84;2170593;81;20968;-82
2022/08/30 11:04:29;;;;;;;5.87;4.95;;;;;;;22.46;60.21;99306.81;2171079;81;21991;-82
2022/08/30 11:07:30;;;;;;;5.67;5.20;;;;;;;22.07;61.44;99304.36;2171267;81;20996;-81
2022/08/30 11:10:30;;;;;;;7.58;5.62;;;;;;;21.81;62.62;99301.50;2171888;81;20996;-81
2022/08/30 11:13:31;;;;;;;9.98;5.40;;;;;;;21.74;63.74;99302.13;2170773;81;21479;-84
2022/08/30 11:16:31;;;;;;;6.95;5.40;;;;;;;21.76;63.65;99297.64;2170887;81;21035;-84
2022/08/30 11:19:33;;;;;;;5.90;5.40;;;;;;;21.93;62.94;99303.38;2171129;81;21016;-84
2022/08/30 11:22:32;;;;;;;6.45;5.20;;;;;;;22.00;62.77;99300.09;2171710;82;21414;-86
2022/08/30 11:25:33;;;;;;;6.17;5.60;;;;;;;22.09;63.18;99297.22;2171694;81;20957;-86
2022/08/30 11:28:33;;;;;;;5.80;5.20;;;;;;;22.39;61.92;99303.92;2171440;81;21041;-85
2022/08/30 11:31:34;;;;;;;9.05;4.90;;;;;;;22.63;61.84;99292.59;2172055;81;20980;-84
2022/08/30 11:34:34;;;;;;;6.28;5.35;;;;;;;22.80;60.24;99296.98;2171007;81;20976;-84
2022/08/30 11:37:35;;;;;;;26.15;6.78;;;;;;;22.93;59.71;99297.93;2171158;81;20937;-84
2022/08/30 11:40:35;;;;;;;5.35;4.90;;;;;;;22.88;59.44;99299.41;2170305;81;21399;-85
2022/08/30 11:43:37;;;;;;;4.80;4.40;;;;;;;22.76;60.54;99291.77;2170938;81;21041;-84
2022/08/30 11:46:36;;;;;;;9.88;5.03;;;;;;;22.76;59.58;99296.62;2170712;81;20929;-86
2022/08/30 11:49:36;;;;;;;10.63;5.40;;;;;;;22.72;59.66;99294.98;2170634;81;20973;-84
2022/08/30 11:52:36;;;;;;;4.75;4.35;;;;;;;22.72;60.00;99292.77;2170087;81;20987;-84
2022/08/30 11:55:37;;;;;;;5.83;5.00;;;;;;;22.87;59.91;99291.01;2171660;81;20968;-84
2022/08/30 11:58:37;;;;;;;6.62;5.05;;;;;;;22.90;60.11;99294.03;2187890;81;21798;-84
2022/08/30 12:01:38;;;;;;;5.42;4.78;;;;;;;22.99;59.62;99293.75;2188284;81;21014;-82
2022/08/30 12:04:38;;;;;;;5.15;4.65;;;;;;;23.06;58.89;99293.51;2188308;81;20948;-83
2022/08/30 12:07:38;;;;;;;9.70;4.87;;;;;;;23.19;58.43;99286.00;2187681;81;20968;-83
2022/08/30 12:10:39;;;;;;;5.33;4.83;;;;;;;23.20;57.75;99289.07;2187368;81;21024;-83
2022/08/30 12:13:39;;;;;;;6.35;5.30;;;;;;;23.25;58.21;99284.47;2186848;81;21018;-82
2022/08/30 12:18:26;;;;;;;6.42;4.67;;;;;;;23.15;56.58;99280.36;2187477;81;20971;-83
2022/08/30 12:19:40;;;;;;;9.40;4.95;;;;;;;23.09;57.69;99279.22;2189086;81;21241;-83
2022/08/30 12:22:40;;;;;;;6.03;5.20;;;;;;;23.11;57.39;99280.05;2189340;81;21340;-83
2022/08/30 12:25:41;;;;;;;5.40;4.90;;;;;;;23.04;56.67;99282.03;2189097;81;21406;-81
2022/08/30 12:28:42;;;;;;;8.00;5.40;;;;;;;22.96;57.05;99276.08;2185388;81;20964;-83
2022/08/30 12:31:42;;;;;;;7.37;4.95;;;;;;;23.20;56.59;99273.09;2185258;81;21078;-82
2022/08/30 12:34:42;;;;;;;5.33;4.85;;;;;;;23.17;57.40;99267.41;2184958;81;20988;-83
2022/08/30 12:37:42;;;;;;;6.70;6.03;;;;;;;23.44;55.93;99268.78;2185506;81;21003;-82
2022/08/30 12:40:43;;;;;;;6.33;5.67;;;;;;;23.49;56.13;99262.84;2186117;81;20995;-84
2022/08/30 12:43:43;;;;;;;5.92;5.30;;;;;;;23.46;54.18;99258.48;2185754;81;21977;-82
2022/08/30 12:46:44;;;;;;;5.92;4.92;;;;;;;23.35;54.22;99249.95;2185896;81;20975;-81
2022/08/30 12:49:45;;;;;;;5.60;5.10;;;;;;;23.51;54.00;99250.33;2186618;81;21019;-85
2022/08/30 12:52:44;;;;;;;6.83;4.83;;;;;;;23.45;55.04;99243.42;2186903;81;21656;-80
2022/08/30 12:55:45;;;;;;;5.17;4.70;;;;;;;23.54;54.64;99245.36;2186158;81;21012;-79
2022/08/30 12:58:46;;;;;;;6.33;5.00;;;;;;;23.47;54.44;99241.58;2168896;81;21365;-85
2022/08/30 13:01:46;;;;;;;4.95;4.53;;;;;;;23.69;54.73;99226.20;2170293;82;21423;-82
2022/08/30 13:04:46;;;;;;;5.75;4.37;;;;;;;23.92;53.52;99224.05;2170308;81;21020;-82
2022/08/30 13:07:46;;;;;;;5.80;5.25;;;;;;;24.15;53.78;99221.41;2170515;81;21116;-83
2022/08/30 13:10:47;;;;;;;4.55;4.15;;;;;;;24.22;52.82;99219.38;2170563;81;21432;-84
2022/08/30 13:13:47;;;;;;;4.80;3.72;;;;;;;24.15;51.51;99218.73;2170293;81;21008;-83
2022/08/30 13:16:48;;;;;;;6.45;3.55;;;;;;;24.12;48.57;99221.05;2170868;81;21001;-84
2022/08/30 13:19:48;;;;;;;3.60;3.30;;;;;;;24.08;49.38;99218.09;2171794;81;20932;-84
2022/08/30 13:22:48;;;;;;;4.03;3.72;;;;;;;24.01;47.29;99216.59;2171218;81;21028;-83
2022/08/30 13:25:49;;;;;;;4.05;3.75;;;;;;;23.75;48.02;99208.66;2172134;81;20985;-84
2022/08/30 13:28:49;;;;;;;3.65;3.35;;;;;;;23.41;47.80;99222.27;2172178;81;21317;-84
2022/08/30 13:31:50;;;;;;;5.30;3.62;;;;;;;23.25;49.69;99212.56;2172192;81;20977;-84
2022/08/30 13:34:50;;;;;;;4.25;3.75;;;;;;;23.22;49.63;99210.45;2172070;81;21019;-84
2022/08/30 13:37:50;;;;;;;5.33;3.65;;;;;;;23.35;49.84;99213.98;2171512;81;20928;-83
2022/08/30 13:40:51;;;;;;;3.75;3.45;;;;;;;23.49;49.62;99205.09;2171397;81;20976;-83
2022/08/30 13:43:51;;;;;;;3.40;3.10;;;;;;;23.49;50.92;99209.09;2170808;81;21071;-84
2022/08/30 13:46:52;;;;;;;6.37;3.45;;;;;;;23.26;52.62;99212.09;2170601;82;20972;-79
2022/08/30 13:49:52;;;;;;;3.55;3.35;;;;;;;23.00;53.00;99224.94;2170866;81;20982;-84
2022/08/30 13:52:52;;;;;;;3.58;3.27;;;;;;;22.76;54.17;99215.92;2170317;82;20972;-85
2022/08/30 13:55:53;;;;;;;4.70;3.40;;;;;;;22.62;54.83;99217.69;2170382;81;21000;-82
2022/08/30 13:58:53;;;;;;;3.60;3.30;;;;;;;22.44;53.32;99216.88;2186058;81;21118;-84
2022/08/30 14:01:54;;;;;;;4.00;3.40;;;;;;;22.46;53.64;99213.26;2187955;81;20920;-84
2022/08/30 14:04:54;;;;;;;3.55;3.25;;;;;;;22.72;53.13;99212.48;2187414;81;21243;-84
2022/08/30 14:07:54;;;;;;;3.20;3.00;;;;;;;22.87;52.57;99210.70;2188794;81;20990;-84